Time;durP1;ratioP1;P1;durP2;ratioP2;P2;SDS_P1;SDS_P2;PMS_P1;PMS_P2;Temp;Humidity;BMP_temperature;BMP_pressure;BME280_temperature;BME280_humidity;BME280_pressure;Samples;Min_cycle;Max_cycle;Signal;HPM_P1;HPM_P2
2021/03/10 00:02:07;;;;;;;40.30;34.30;;;8.40;98.80;;;;;;5054592;28;20176;-88
2021/03/10 00:04:33;;;;;;;41.60;35.17;;;8.50;99.40;;;;;;5072993;28;20178;-87
2021/03/10 00:06:58;;;;;;;46.30;36.70;;;8.40;99.50;;;;;;5073979;28;20165;-85
2021/03/10 00:09:24;;;;;;;46.37;37.20;;;8.30;99.30;;;;;;5074308;28;20211;-84
2021/03/10 00:11:50;;;;;;;46.50;37.50;;;8.20;99.70;;;;;;5056547;28;20251;-81
2021/03/10 00:14:15;;;;;;;45.73;37.63;;;8.10;99.90;;;;;;5074229;28;20634;-81
2021/03/10 00:16:41;;;;;;;45.17;37.00;;;8.10;99.90;;;;;;5074251;28;20173;-86
2021/03/10 00:19:07;;;;;;;42.20;35.30;;;8.30;99.90;;;;;;5074344;28;20624;-84
2021/03/10 00:21:32;;;;;;;44.33;36.37;;;8.40;99.70;;;;;;5074130;28;20168;-85
2021/03/10 00:23:58;;;;;;;45.70;37.30;;;8.20;99.70;;;;;;5074307;28;20662;-84
2021/03/10 00:26:24;;;;;;;46.07;37.57;;;8.20;99.10;;;;;;5073999;28;20160;-86
2021/03/10 00:28:50;;;;;;;45.27;37.70;;;8.20;99.40;;;;;;5073375;28;20170;-85
2021/03/10 00:31:16;;;;;;;50.23;37.33;;;8.10;99.70;;;;;;5073354;28;20223;-86
2021/03/10 00:33:41;;;;;;;47.70;36.30;;;8.00;99.90;;;;;;5055826;28;20184;-87
2021/03/10 00:36:07;;;;;;;47.67;37.07;;;7.90;99.90;;;;;;5073650;28;20634;-85
2021/03/10 00:38:33;;;;;;;48.03;38.67;;;7.90;99.90;;;;;;5056157;28;20270;-87
2021/03/10 00:40:59;;;;;;;44.77;36.20;;;8.00;99.90;;;;;;5055931;28;20263;-83
2021/03/10 00:43:24;;;;;;;48.30;37.43;;;7.80;99.80;;;;;;5056314;28;20194;-86
2021/03/10 00:45:50;;;;;;;48.23;38.50;;;7.80;99.90;;;;;;5056077;28;20233;-80
2021/03/10 00:48:18;;;;;;;50.00;38.53;;;7.60;99.90;;;;;;5056436;28;20180;-88
2021/03/10 00:50:44;;;;;;;45.13;36.83;;;7.60;99.90;;;;;;5073593;28;20224;-88
2021/03/10 00:53:11;;;;;;;45.10;36.50;;;7.50;99.90;;;;;;5074050;28;20251;-87
2021/03/10 00:55:37;;;;;;;47.60;37.77;;;7.50;99.90;;;;;;5055996;28;20180;-83
2021/03/10 00:58:02;;;;;;;57.83;40.30;;;7.50;99.90;;;;;;5074134;28;20175;-86
2021/03/10 01:00:28;;;;;;;49.00;37.03;;;7.70;99.60;;;;;;5074087;28;20175;-86
2021/03/10 01:02:54;;;;;;;51.03;37.33;;;7.70;98.60;;;;;;5074065;28;20176;-87
2021/03/10 01:05:19;;;;;;;49.50;38.60;;;7.60;99.20;;;;;;5073658;28;20168;-86
2021/03/10 01:07:45;;;;;;;47.10;37.40;;;7.50;99.60;;;;;;5055909;28;20329;-86
2021/03/10 01:10:12;;;;;;;45.20;36.47;;;7.40;99.70;;;;;;5055985;28;20204;-86
2021/03/10 01:12:38;;;;;;;50.07;36.53;;;7.40;99.90;;;;;;5073278;28;20172;-79
2021/03/10 01:15:10;;;;;;;45.93;36.40;;;7.40;99.90;;;;;;5073934;28;20631;-84
2021/03/10 01:17:36;;;;;;;49.63;38.00;;;7.30;99.90;;;;;;5055932;28;20176;-86
2021/03/10 01:20:10;;;;;;;47.83;37.27;;;7.40;99.90;;;;;;5073234;28;20187;-85
2021/03/10 01:22:36;;;;;;;52.27;39.17;;;7.50;99.90;;;;;;5055850;28;20171;-87
2021/03/10 01:25:03;;;;;;;49.60;38.27;;;7.50;99.70;;;;;;5077357;28;20179;-86
2021/03/10 01:27:28;;;;;;;47.27;38.03;;;7.40;99.70;;;;;;5064128;28;20176;-85
2021/03/10 01:29:54;;;;;;;49.17;39.07;;;7.30;99.80;;;;;;5056714;28;20613;-86
2021/03/10 01:32:20;;;;;;;50.33;38.37;;;7.40;99.90;;;;;;5073740;28;20176;-86
2021/03/10 01:34:45;;;;;;;51.00;39.60;;;7.30;99.70;;;;;;5055947;28;20620;-86
2021/03/10 01:37:11;;;;;;;49.60;39.07;;;7.10;99.90;;;;;;5073503;28;20606;-85
2021/03/10 01:39:37;;;;;;;53.47;40.20;;;7.00;99.90;;;;;;5055703;28;20232;-83
2021/03/10 01:42:03;;;;;;;52.37;39.97;;;7.00;99.90;;;;;;5073261;28;20253;-81
2021/03/10 01:44:30;;;;;;;53.67;37.80;;;6.90;99.90;;;;;;5055620;28;20176;-86
2021/03/10 01:46:56;;;;;;;52.13;41.57;;;6.90;99.90;;;;;;5072920;28;20538;-84
2021/03/10 01:49:22;;;;;;;50.77;39.57;;;6.90;99.90;;;;;;5073109;28;20219;-86
2021/03/10 01:51:47;;;;;;;51.97;39.60;;;7.00;99.90;;;;;;5055259;28;20196;-85
2021/03/10 01:54:14;;;;;;;53.27;39.57;;;6.90;99.90;;;;;;5073567;28;20248;-83
2021/03/10 01:56:40;;;;;;;49.83;40.97;;;6.80;99.90;;;;;;5073251;28;20173;-85
2021/03/10 01:59:06;;;;;;;48.83;38.57;;;6.70;99.90;;;;;;5055785;28;20212;-84
2021/03/10 02:01:32;;;;;;;54.13;41.43;;;6.70;99.90;;;;;;5072785;28;20192;-84
2021/03/10 02:04:08;;;;;;;58.43;40.07;;;6.80;99.90;;;;;;5055268;28;20594;-85
2021/03/10 02:07:08;;;;;;;55.83;39.93;;;6.80;99.90;;;;;;5073343;28;20222;-87
2021/03/10 02:10:10;;;;;;;52.50;39.57;;;6.80;99.90;;;;;;5056244;28;20239;-85
2021/03/10 02:12:48;;;;;;;53.17;38.97;;;6.70;99.70;;;;;;5074211;28;20180;-84
2021/03/10 02:15:53;;;;;;;50.70;39.30;;;6.60;99.80;;;;;;5055345;28;20689;-87
2021/03/10 02:18:32;;;;;;;50.70;39.17;;;6.50;99.90;;;;;;5069161;28;20230;-87
2021/03/10 02:20:59;;;;;;;52.43;39.43;;;6.50;99.90;;;;;;5073285;28;20172;-86
2021/03/10 02:23:54;;;;;;;51.40;40.07;;;6.50;99.90;;;;;;5057411;28;20255;-87
2021/03/10 02:26:32;;;;;;;51.67;38.50;;;6.40;99.90;;;;;;5059108;28;20640;-86
2021/03/10 02:29:06;;;;;;;52.00;39.20;;;6.40;99.90;;;;;;5076636;28;20170;-85
2021/03/10 02:31:54;;;;;;;59.60;40.97;;;6.30;99.90;;;;;;5076295;28;20690;-85
2021/03/10 02:34:20;;;;;;;51.40;38.43;;;6.30;99.90;;;;;;5076581;28;20172;-83
2021/03/10 02:36:49;;;;;;;50.73;39.27;;;6.20;99.90;;;;;;5076408;28;20169;-87
2021/03/10 02:39:16;;;;;;;49.83;39.43;;;6.20;99.90;;;;;;5076522;28;20169;-88
2021/03/10 02:41:43;;;;;;;52.90;39.37;;;6.20;99.90;;;;;;5058468;28;20266;-85
2021/03/10 02:44:12;;;;;;;52.90;39.40;;;6.20;99.90;;;;;;5076519;28;20168;-84
2021/03/10 02:46:38;;;;;;;52.73;38.20;;;6.20;99.90;;;;;;5075986;28;20173;-83
2021/03/10 02:49:06;;;;;;;55.13;39.47;;;6.10;99.90;;;;;;5058426;28;20203;-86
2021/03/10 02:51:33;;;;;;;50.67;38.00;;;6.20;99.90;;;;;;5076050;28;20321;-82
2021/03/10 02:54:00;;;;;;;46.90;37.27;;;6.20;99.90;;;;;;5076427;28;20229;-85
2021/03/10 02:56:26;;;;;;;44.90;35.90;;;6.10;99.90;;;;;;5076103;28;20176;-85
2021/03/10 02:58:52;;;;;;;46.20;35.90;;;6.10;99.90;;;;;;5058502;28;20632;-84
2021/03/10 03:01:18;;;;;;;44.37;34.97;;;6.20;99.90;;;;;;5057973;28;20255;-84
2021/03/10 03:03:44;;;;;;;54.67;36.60;;;6.10;99.90;;;;;;5058088;28;20176;-82
2021/03/10 03:06:10;;;;;;;44.57;35.00;;;6.00;99.90;;;;;;5075984;28;20600;-88
2021/03/10 03:08:36;;;;;;;46.60;35.40;;;5.90;99.90;;;;;;5075938;28;20237;-87
2021/03/10 03:11:03;;;;;;;47.83;35.03;;;5.90;99.90;;;;;;5057633;28;20208;-84
2021/03/10 03:13:30;;;;;;;48.70;35.00;;;5.90;99.90;;;;;;5075802;28;20172;-86
2021/03/10 03:15:58;;;;;;;42.90;33.87;;;5.90;99.90;;;;;;5075861;28;20168;-86
2021/03/10 03:18:29;;;;;;;44.00;33.50;;;5.80;99.90;;;;;;5075914;28;20214;-85
2021/03/10 03:20:58;;;;;;;46.83;33.87;;;5.90;99.90;;;;;;5060189;28;20184;-86
2021/03/10 03:23:25;;;;;;;40.67;32.60;;;5.90;99.90;;;;;;5057811;28;20268;-87
2021/03/10 03:25:51;;;;;;;44.83;32.37;;;5.90;99.90;;;;;;5075840;28;20271;-85
2021/03/10 03:28:25;;;;;;;41.87;33.10;;;5.90;99.90;;;;;;5057704;28;20282;-84
2021/03/10 03:30:54;;;;;;;42.53;32.27;;;5.90;99.90;;;;;;5057762;28;20215;-86
2021/03/10 03:33:28;;;;;;;43.93;30.37;;;5.90;99.90;;;;;;5060411;28;20284;-86
2021/03/10 03:35:57;;;;;;;40.10;28.97;;;5.80;99.90;;;;;;5074997;28;20193;-87
2021/03/10 03:38:25;;;;;;;43.93;29.53;;;5.80;99.90;;;;;;5075678;28;20180;-87
2021/03/10 03:40:52;;;;;;;42.77;29.33;;;5.80;99.90;;;;;;5057775;28;20600;-87
2021/03/10 03:43:19;;;;;;;41.70;29.47;;;5.80;99.90;;;;;;5075593;28;20263;-85
2021/03/10 03:45:45;;;;;;;36.47;28.47;;;5.80;99.90;;;;;;5057616;28;20172;-87
2021/03/10 03:48:11;;;;;;;37.93;28.27;;;5.80;99.90;;;;;;5075249;28;20183;-80
2021/03/10 03:50:39;;;;;;;39.33;27.60;;;5.70;99.90;;;;;;5074879;28;20231;-85
2021/03/10 03:53:04;;;;;;;36.20;27.77;;;5.70;99.90;;;;;;5057206;28;20168;-86
2021/03/10 03:55:30;;;;;;;38.30;27.00;;;5.70;99.90;;;;;;5075106;28;20172;-85
2021/03/10 03:57:56;;;;;;;35.87;27.10;;;5.70;99.90;;;;;;5074850;28;20169;-86
2021/03/10 04:00:25;;;;;;;41.40;26.80;;;5.70;99.90;;;;;;5057461;28;20179;-87
2021/03/10 04:02:52;;;;;;;45.70;28.43;;;5.70;99.90;;;;;;5057168;28;20228;-86
2021/03/10 04:05:19;;;;;;;40.67;27.87;;;5.70;99.90;;;;;;5074844;28;20168;-87
2021/03/10 04:07:58;;;;;;;38.70;26.90;;;5.70;99.90;;;;;;5075004;28;20169;-84
2021/03/10 04:10:29;;;;;;;41.63;26.93;;;5.70;99.90;;;;;;5074939;28;20751;-87
2021/03/10 04:12:55;;;;;;;38.13;28.23;;;5.70;99.90;;;;;;5074887;28;20164;-86
2021/03/10 04:15:21;;;;;;;40.30;28.67;;;5.70;99.90;;;;;;5074448;28;20205;-84
2021/03/10 04:17:48;;;;;;;42.00;27.70;;;5.70;99.90;;;;;;5074685;28;20176;-85
2021/03/10 04:20:17;;;;;;;41.70;27.67;;;5.60;99.90;;;;;;5056672;28;20183;-85
2021/03/10 04:22:43;;;;;;;35.80;27.83;;;5.60;99.90;;;;;;5074601;28;20165;-87
2021/03/10 04:25:11;;;;;;;37.03;28.63;;;5.60;99.90;;;;;;5074467;28;20214;-84
2021/03/10 04:27:37;;;;;;;37.70;29.17;;;5.70;99.90;;;;;;5073952;28;20191;-84
2021/03/10 04:30:05;;;;;;;41.90;30.13;;;5.70;99.90;;;;;;5074655;28;20204;-80
2021/03/10 04:32:31;;;;;;;37.70;28.70;;;5.70;99.90;;;;;;5074438;28;20161;-85
2021/03/10 04:34:57;;;;;;;40.00;29.30;;;5.70;99.90;;;;;;5056479;28;20702;-83
2021/03/10 04:37:22;;;;;;;40.67;28.70;;;5.70;99.90;;;;;;5074902;28;20164;-86
2021/03/10 04:39:48;;;;;;;38.47;29.37;;;5.70;99.90;;;;;;5056388;28;20266;-86
2021/03/10 04:42:14;;;;;;;38.57;28.27;;;5.70;99.90;;;;;;5074349;28;20193;-81
2021/03/10 04:44:39;;;;;;;41.20;29.83;;;5.60;99.90;;;;;;5074442;28;20578;-82
2021/03/10 04:47:05;;;;;;;42.17;29.50;;;5.60;99.90;;;;;;5055276;28;20632;-85
2021/03/10 04:49:31;;;;;;;43.97;29.17;;;5.70;99.90;;;;;;5074203;28;20200;-85
2021/03/10 04:51:57;;;;;;;38.20;28.40;;;5.70;99.90;;;;;;5058157;28;20253;-83
2021/03/10 04:54:22;;;;;;;41.57;30.30;;;5.70;99.90;;;;;;5078865;28;20164;-82
2021/03/10 04:56:48;;;;;;;36.03;28.77;;;5.60;99.90;;;;;;5075578;28;20207;-83
2021/03/10 04:59:14;;;;;;;36.13;27.23;;;5.50;99.90;;;;;;5074007;28;20168;-85
2021/03/10 05:01:40;;;;;;;36.47;27.20;;;5.50;99.90;;;;;;5073786;28;20200;-84
2021/03/10 05:04:06;;;;;;;38.47;28.37;;;5.50;99.90;;;;;;5074716;28;20181;-82
2021/03/10 05:06:31;;;;;;;36.63;27.67;;;5.70;99.90;;;;;;5074632;28;20251;-80
2021/03/10 05:08:57;;;;;;;39.83;26.63;;;5.50;99.90;;;;;;5073596;28;20173;-78
2021/03/10 05:11:22;;;;;;;40.23;28.10;;;5.50;99.90;;;;;;5055178;28;20212;-86
2021/03/10 05:13:49;;;;;;;38.43;27.90;;;5.60;99.90;;;;;;5074122;28;20196;-88
2021/03/10 05:16:15;;;;;;;39.20;27.57;;;5.60;99.90;;;;;;5073703;28;20183;-86
2021/03/10 05:18:42;;;;;;;41.57;28.17;;;5.50;99.90;;;;;;5073879;28;20176;-81
2021/03/10 05:21:08;;;;;;;39.60;26.27;;;5.60;99.90;;;;;;5055849;28;20663;-86
2021/03/10 05:23:33;;;;;;;37.43;26.60;;;5.60;99.90;;;;;;5073570;28;20164;-85
2021/03/10 05:25:59;;;;;;;38.70;26.43;;;5.60;99.90;;;;;;5073812;28;20655;-85
2021/03/10 05:28:25;;;;;;;37.40;26.57;;;5.60;99.90;;;;;;5073821;28;20168;-86
2021/03/10 05:30:50;;;;;;;38.97;26.80;;;5.70;99.90;;;;;;5073455;28;20319;-87
2021/03/10 05:33:16;;;;;;;36.07;26.60;;;5.80;99.90;;;;;;5055789;28;20537;-86
2021/03/10 05:35:41;;;;;;;40.23;28.10;;;5.90;99.90;;;;;;5073289;28;20190;-88
2021/03/10 05:38:07;;;;;;;41.17;26.30;;;5.80;99.90;;;;;;5073741;28;20544;-85
2021/03/10 05:40:34;;;;;;;36.63;25.63;;;5.80;99.90;;;;;;5055716;28;20176;-85
2021/03/10 05:43:01;;;;;;;35.77;25.10;;;5.80;99.90;;;;;;5055227;28;20195;-85
2021/03/10 05:45:27;;;;;;;36.00;25.67;;;5.80;99.90;;;;;;5055485;28;20172;-85
2021/03/10 05:47:53;;;;;;;32.37;23.87;;;5.80;99.90;;;;;;5073528;28;20322;-88
2021/03/10 05:50:19;;;;;;;36.47;23.97;;;5.80;99.90;;;;;;5055498;28;20311;-86
2021/03/10 05:52:48;;;;;;;40.83;22.93;;;5.90;99.90;;;;;;5073800;28;20631;-86
2021/03/10 05:55:18;;;;;;;46.23;25.20;;;5.80;99.90;;;;;;5073059;28;20247;-83
2021/03/10 05:57:45;;;;;;;36.40;24.50;;;5.90;99.90;;;;;;5056634;28;20272;-85
2021/03/10 06:00:15;;;;;;;37.67;24.37;;;5.90;99.90;;;;;;5058961;28;20263;-87
2021/03/10 06:02:41;;;;;;;39.20;25.23;;;5.90;99.90;;;;;;5058935;28;20184;-86
2021/03/10 06:05:25;;;;;;;38.67;25.13;;;5.90;99.90;;;;;;5077741;28;20519;-84
2021/03/10 06:08:01;;;;;;;39.20;24.70;;;5.90;99.90;;;;;;5059586;28;20559;-86
2021/03/10 06:10:37;;;;;;;39.13;25.83;;;5.90;99.90;;;;;;5059032;28;20285;-83
2021/03/10 06:13:02;;;;;;;39.67;25.17;;;5.90;99.90;;;;;;5058671;28;20210;-83
2021/03/10 06:15:39;;;;;;;40.17;26.30;;;5.90;99.90;;;;;;5058741;28;20651;-82
2021/03/10 06:18:05;;;;;;;33.43;23.50;;;6.00;99.90;;;;;;5076913;28;20160;-86
2021/03/10 06:20:32;;;;;;;39.70;26.93;;;6.10;99.90;;;;;;5058461;28;20290;-85
2021/03/10 06:22:58;;;;;;;43.30;24.77;;;6.00;99.90;;;;;;5076206;28;20605;-79
2021/03/10 06:25:37;;;;;;;39.07;24.90;;;6.00;99.90;;;;;;5076716;28;20252;-83
2021/03/10 06:28:03;;;;;;;40.03;25.97;;;6.00;99.90;;;;;;5058957;28;20168;-86
2021/03/10 06:30:33;;;;;;;37.70;26.77;;;6.00;99.90;;;;;;5058297;28;20210;-79
2021/03/10 06:32:59;;;;;;;42.53;27.23;;;6.10;99.90;;;;;;5076008;28;20235;-85
2021/03/10 06:35:30;;;;;;;41.10;26.93;;;6.10;99.90;;;;;;5057853;28;20236;-85
2021/03/10 06:38:11;;;;;;;44.40;27.43;;;6.00;99.90;;;;;;5075754;28;20171;-84
2021/03/10 06:40:55;;;;;;;42.47;26.50;;;6.10;99.90;;;;;;5076266;28;20180;-83
2021/03/10 06:43:33;;;;;;;39.53;26.47;;;6.00;99.90;;;;;;5075482;28;20168;-82
2021/03/10 06:46:20;;;;;;;46.83;27.57;;;6.00;99.90;;;;;;5059342;28;20233;-86
2021/03/10 06:48:57;;;;;;;43.43;26.47;;;5.90;99.90;;;;;;5060240;28;20276;-83
2021/03/10 06:51:24;;;;;;;47.10;27.40;;;5.90;99.90;;;;;;5057419;28;20572;-84
2021/03/10 06:53:50;;;;;;;41.60;26.57;;;6.00;99.90;;;;;;5075385;28;20171;-90
2021/03/10 06:56:27;;;;;;;44.57;26.90;;;5.90;99.90;;;;;;5058768;28;20164;-81
2021/03/10 06:58:57;;;;;;;43.87;26.20;;;6.00;99.90;;;;;;5074906;28;20172;-85
2021/03/10 07:01:25;;;;;;;48.77;25.73;;;6.10;99.90;;;;;;5075241;28;20172;-89
2021/03/10 07:03:54;;;;;;;45.40;26.63;;;6.10;99.90;;;;;;5075305;28;20179;-82
2021/03/10 07:06:20;;;;;;;51.53;26.37;;;6.10;99.90;;;;;;5074677;28;20330;-91
2021/03/10 07:08:47;;;;;;;45.80;25.80;;;6.10;99.90;;;;;;5057011;28;20267;-84
2021/03/10 07:11:14;;;;;;;47.30;26.03;;;6.10;99.90;;;;;;5074713;28;20598;-80
2021/03/10 07:13:41;;;;;;;48.33;26.83;;;6.10;99.90;;;;;;5075095;28;20267;-83
2021/03/10 07:16:09;;;;;;;44.73;27.50;;;6.20;99.90;;;;;;5075441;28;20566;-83
2021/03/10 07:18:36;;;;;;;51.47;25.17;;;6.20;99.90;;;;;;5056938;28;20643;-86
2021/03/10 07:21:03;;;;;;;46.80;27.90;;;6.20;99.90;;;;;;5056724;28;20230;-84
2021/03/10 07:23:38;;;;;;;45.53;27.47;;;6.20;99.80;;;;;;5055828;28;20226;-90
2021/03/10 07:26:04;;;;;;;47.40;25.93;;;6.30;99.40;;;;;;5057041;28;20183;-84
2021/03/10 07:28:32;;;;;;;46.77;25.27;;;6.30;98.90;;;;;;5072989;28;20243;-90
2021/03/10 07:30:57;;;;;;;47.77;26.47;;;6.20;98.80;;;;;;5060239;28;20223;-87
2021/03/10 07:33:24;;;;;;;45.00;24.57;;;6.30;99.00;;;;;;5073714;28;20248;-92
2021/03/10 07:35:58;;;;;;;52.03;24.17;;;6.30;98.60;;;;;;5056113;28;20655;-82
2021/03/10 07:38:39;;;;;;;42.17;23.33;;;6.40;98.20;;;;;;5075146;28;20249;-89
2021/03/10 07:41:15;;;;;;;39.57;23.47;;;6.40;97.80;;;;;;5074700;28;20169;-85
2021/03/10 07:43:44;;;;;;;39.57;21.63;;;6.40;97.40;;;;;;5057462;28;20183;-88
2021/03/10 07:46:28;;;;;;;36.67;22.03;;;6.50;97.40;;;;;;5075528;28;20224;-83
2021/03/10 07:48:55;;;;;;;31.07;20.77;;;6.60;96.10;;;;;;5057634;28;20267;-84
2021/03/10 07:51:35;;;;;;;28.63;19.77;;;6.60;95.50;;;;;;5075793;28;20223;-93
2021/03/10 07:54:14;;;;;;;29.67;21.20;;;6.60;95.00;;;;;;5077246;28;20222;-94
2021/03/10 07:56:39;;;;;;;30.53;18.77;;;6.70;94.90;;;;;;5078677;28;20180;-89
2021/03/10 07:59:15;;;;;;;28.03;19.17;;;6.80;93.80;;;;;;5080727;28;20237;-92
2021/03/10 08:01:42;;;;;;;27.83;17.60;;;6.80;92.90;;;;;;5084237;28;20156;-87
2021/03/10 08:04:15;;;;;;;25.83;17.10;;;6.90;92.10;;;;;;5076623;28;20218;-86
2021/03/10 08:06:52;;;;;;;26.43;17.00;;;6.90;91.40;;;;;;5074033;28;20164;-85
2021/03/10 08:09:20;;;;;;;23.10;16.73;;;6.90;90.50;;;;;;5056513;28;20175;-87
2021/03/10 08:11:47;;;;;;;24.47;16.30;;;7.00;90.20;;;;;;5074239;28;20624;-84
2021/03/10 08:14:16;;;;;;;28.83;17.80;;;7.20;88.20;;;;;;5074403;28;20168;-85
2021/03/10 08:16:48;;;;;;;27.37;16.77;;;7.10;86.50;;;;;;5073001;28;20251;-86
2021/03/10 08:19:18;;;;;;;34.23;19.30;;;7.10;85.30;;;;;;5055087;28;20180;-86
2021/03/10 08:21:53;;;;;;;31.43;18.93;;;7.10;84.80;;;;;;5055955;28;20183;-87
2021/03/10 08:24:20;;;;;;;27.90;18.23;;;7.20;83.80;;;;;;5073630;28;20171;-83
2021/03/10 08:26:51;;;;;;;25.07;17.57;;;7.20;82.30;;;;;;5073639;28;20543;-85
2021/03/10 08:29:17;;;;;;;31.47;17.47;;;7.20;80.90;;;;;;5054935;28;20271;-87
2021/03/10 08:31:54;;;;;;;24.40;14.70;;;7.30;80.70;;;;;;5055308;28;20184;-86
2021/03/10 08:34:33;;;;;;;20.40;14.13;;;7.30;78.60;;;;;;5056369;28;20207;-86
2021/03/10 08:37:00;;;;;;;19.77;12.73;;;7.40;76.60;;;;;;5075804;28;20531;-85
2021/03/10 08:39:27;;;;;;;17.77;12.80;;;7.40;74.30;;;;;;5074527;28;20180;-86
2021/03/10 08:41:55;;;;;;;15.70;11.70;;;7.50;71.80;;;;;;5055170;28;20632;-87
2021/03/10 08:44:23;;;;;;;22.60;13.53;;;7.50;69.60;;;;;;5055252;28;20187;-85
2021/03/10 08:46:54;;;;;;;20.53;13.00;;;7.60;70.00;;;;;;5055462;28;20183;-86
2021/03/10 08:49:24;;;;;;;16.73;12.83;;;7.80;66.60;;;;;;5054032;28;20300;-87
2021/03/10 08:52:01;;;;;;;17.20;11.30;;;7.90;63.90;;;;;;5055035;28;20298;-87
2021/03/10 08:54:27;;;;;;;16.73;11.63;;;8.00;60.10;;;;;;5073403;28;20171;-86
2021/03/10 08:56:52;;;;;;;17.20;11.30;;;8.10;58.60;;;;;;5073424;28;20172;-88
2021/03/10 08:59:18;;;;;;;20.43;12.20;;;8.00;55.30;;;;;;5055663;28;20168;-86
2021/03/10 09:01:53;;;;;;;15.10;11.37;;;8.10;53.90;;;;;;5076527;28;20176;-88
2021/03/10 09:04:25;;;;;;;18.00;13.30;;;8.20;53.50;;;;;;5081260;28;20403;-89
2021/03/10 09:06:52;;;;;;;14.73;11.43;;;8.30;51.30;;;;;;5079330;28;20164;-87
2021/03/10 09:09:19;;;;;;;15.60;10.23;;;8.40;49.30;;;;;;5080182;28;20168;-87
2021/03/10 09:11:45;;;;;;;16.33;10.33;;;8.40;44.60;;;;;;5083595;28;20172;-83
2021/03/10 09:14:12;;;;;;;15.63;10.13;;;8.40;42.70;;;;;;5083593;28;20172;-88
2021/03/10 09:16:52;;;;;;;16.47;10.00;;;8.50;43.00;;;;;;5057516;28;20177;-84
2021/03/10 09:19:47;;;;;;;18.77;9.90;;;8.60;39.80;;;;;;5072677;28;20254;-80
2021/03/10 09:22:21;;;;;;;15.30;9.90;;;8.60;38.90;;;;;;5071459;28;20184;-87
2021/03/10 09:24:55;;;;;;;16.53;9.43;;;8.70;35.80;;;;;;5064479;28;20271;-94
2021/03/10 09:27:29;;;;;;;11.13;8.97;;;8.80;35.20;;;;;;5060495;28;20640;-83
2021/03/10 09:30:04;;;;;;;15.13;9.47;;;8.90;35.00;;;;;;5073420;28;20223;-78
2021/03/10 09:32:44;;;;;;;16.00;9.43;;;9.00;32.30;;;;;;5074103;28;20163;-85
2021/03/10 09:35:20;;;;;;;19.23;9.70;;;9.10;28.80;;;;;;5056018;28;20225;-80
2021/03/10 09:37:52;;;;;;;14.80;9.60;;;9.30;22.90;;;;;;5075136;28;20593;-87
2021/03/10 09:40:21;;;;;;;19.60;9.00;;;9.40;23.30;;;;;;5074117;28;20172;-86
2021/03/10 09:43:02;;;;;;;13.10;8.57;;;9.40;25.00;;;;;;5067676;28;20207;-78
2021/03/10 09:45:31;;;;;;;14.63;8.63;;;9.70;22.00;;;;;;5074262;28;20172;-82
2021/03/10 09:47:57;;;;;;;17.03;8.83;;;9.80;16.10;;;;;;5056783;28;20168;-88
2021/03/10 09:50:35;;;;;;;14.63;9.87;;;10.00;18.90;;;;;;5057101;28;20757;-85
2021/03/10 09:53:18;;;;;;;14.47;9.10;;;10.20;20.80;;;;;;5081156;28;20176;-84
2021/03/10 09:55:45;;;;;;;14.67;8.67;;;10.40;15.00;;;;;;5057791;28;20168;-89
2021/03/10 09:58:11;;;;;;;13.73;9.00;;;10.50;7.70;;;;;;5075540;28;20161;-88
2021/03/10 10:00:38;;;;;;;14.27;9.47;;;10.30;8.00;;;;;;5074850;28;20219;-83
2021/03/10 10:03:05;;;;;;;14.43;9.57;;;10.40;11.20;;;;;;5074935;28;20164;-89
2021/03/10 10:05:34;;;;;;;12.73;9.77;;;10.50;4.60;;;;;;5074165;28;20161;-81
2021/03/10 10:08:01;;;;;;;14.30;10.97;;;10.40;5.80;;;;;;5074429;28;20194;-85
2021/03/10 10:10:29;;;;;;;17.90;11.07;;;10.40;12.10;;;;;;5057152;28;20211;-90
2021/03/10 10:12:55;;;;;;;13.40;10.77;;;10.40;5.40;;;;;;5053917;28;20179;-81
2021/03/10 10:15:24;;;;;;;14.27;10.53;;;10.30;6.50;;;;;;5071487;28;20160;-85
2021/03/10 10:17:54;;;;;;;13.17;10.23;;;10.30;3.70;;;;;;5053624;28;20172;-78
2021/03/10 10:20:24;;;;;;;12.63;10.83;;;10.30;1.10;;;;;;5070870;28;20191;-81
2021/03/10 10:22:50;;;;;;;15.20;11.47;;;10.10;7.60;;;;;;5070773;28;20190;-84
2021/03/10 10:25:17;;;;;;;17.37;11.77;;;10.00;7.60;;;;;;5071125;28;20184;-79
2021/03/10 10:27:44;;;;;;;13.67;11.20;;;10.00;12.40;;;;;;5070934;28;20172;-81
2021/03/10 10:30:14;;;;;;;15.60;11.50;;;10.10;7.60;;;;;;5069013;28;20300;-80
2021/03/10 10:32:41;;;;;;;17.80;12.30;;;10.00;11.60;;;;;;5071264;28;20516;-79
2021/03/10 10:35:08;;;;;;;15.30;12.03;;;9.90;16.80;;;;;;5071566;28;20195;-80
2021/03/10 10:37:33;;;;;;;18.33;12.77;;;9.90;13.30;;;;;;5071143;28;20861;-79
2021/03/10 10:39:59;;;;;;;19.43;13.17;;;10.00;14.90;;;;;;5071081;28;20173;-80
2021/03/10 10:42:26;;;;;;;20.93;12.87;;;10.00;15.20;;;;;;5052784;28;20177;-83
2021/03/10 10:44:52;;;;;;;16.03;12.53;;;10.10;13.70;;;;;;5073838;28;20160;-81
2021/03/10 10:47:19;;;;;;;18.17;13.30;;;10.20;13.40;;;;;;5074367;28;20180;-83
2021/03/10 10:49:44;;;;;;;19.50;13.53;;;10.20;13.60;;;;;;5074165;28;20274;-81
2021/03/10 10:52:10;;;;;;;15.77;13.20;;;10.30;10.60;;;;;;5074688;28;20192;-82
2021/03/10 10:54:36;;;;;;;16.10;12.57;;;10.40;10.10;;;;;;5074504;28;20192;-82
2021/03/10 10:57:03;;;;;;;15.47;12.63;;;10.40;8.10;;;;;;5056229;28;20176;-82
2021/03/10 10:59:28;;;;;;;18.17;12.57;;;10.40;8.10;;;;;;5074197;28;20174;-84
2021/03/10 11:01:54;;;;;;;19.10;13.37;;;10.50;6.90;;;;;;5056358;28;20180;-82
2021/03/10 11:04:19;;;;;;;18.23;13.03;;;10.60;4.20;;;;;;5073930;28;20176;-83
2021/03/10 11:06:45;;;;;;;18.47;12.90;;;10.60;4.30;;;;;;5055714;28;20176;-79
2021/03/10 11:09:11;;;;;;;16.40;12.87;;;10.70;1.30;;;;;;5073853;28;20177;-80
2021/03/10 11:11:36;;;;;;;15.27;12.60;;;10.80;1.00;;;;;;5055713;28;20347;-81
2021/03/10 11:14:03;;;;;;;21.77;13.30;;;11.00;1.00;;;;;;5075205;28;20172;-82
2021/03/10 11:16:29;;;;;;;19.47;13.67;;;11.00;1.00;;;;;;5074207;28;20620;-82
2021/03/10 11:18:55;;;;;;;15.73;12.87;;;11.00;1.00;;;;;;5074260;28;20255;-80
2021/03/10 11:21:21;;;;;;;16.80;12.77;;;11.00;1.00;;;;;;5074375;28;20172;-81
2021/03/10 11:23:47;;;;;;;18.83;13.77;;;11.00;1.00;;;;;;5073146;28;20661;-82
2021/03/10 11:26:13;;;;;;;21.97;14.27;;;11.10;1.00;;;;;;5074274;28;20255;-79
2021/03/10 11:28:38;;;;;;;20.20;14.30;;;11.20;1.00;;;;;;5073730;28;20157;-81
2021/03/10 11:31:06;;;;;;;21.00;13.80;;;11.20;1.00;;;;;;5074154;28;20291;-79
2021/03/10 11:33:32;;;;;;;21.10;14.43;;;11.30;1.00;;;;;;5055923;28;20168;-81
2021/03/10 11:35:58;;;;;;;18.97;13.83;;;11.20;1.00;;;;;;5056209;28;20180;-83
2021/03/10 11:38:23;;;;;;;19.43;14.40;;;11.20;1.00;;;;;;5056038;28;20176;-81
2021/03/10 11:40:49;;;;;;;18.57;13.93;;;11.30;1.00;;;;;;5074352;28;20177;-82
2021/03/10 11:43:16;;;;;;;16.37;13.30;;;11.50;1.00;;;;;;5073361;28;20168;-79
2021/03/10 11:45:43;;;;;;;21.37;16.20;;;11.60;1.00;;;;;;5073907;28;20313;-85
2021/03/10 11:48:09;;;;;;;19.40;14.40;;;11.50;1.00;;;;;;5073234;28;20325;-85
2021/03/10 11:50:37;;;;;;;24.10;14.50;;;11.60;1.00;;;;;;5073547;28;20730;-83
2021/03/10 11:53:04;;;;;;;19.87;16.03;;;11.60;1.00;;;;;;5055628;28;20176;-78
2021/03/10 11:55:30;;;;;;;22.37;15.97;;;11.60;1.00;;;;;;5073071;28;20247;-81
2021/03/10 11:57:56;;;;;;;19.50;15.03;;;11.70;1.00;;;;;;5074101;28;20264;-80
2021/03/10 12:00:25;;;;;;;20.43;15.50;;;11.70;1.00;;;;;;5073799;28;20160;-85
2021/03/10 12:02:51;;;;;;;20.23;16.23;;;11.70;1.00;;;;;;5073749;28;20633;-79
2021/03/10 12:05:18;;;;;;;23.43;16.57;;;11.80;1.00;;;;;;5073436;28;20173;-80
2021/03/10 12:07:43;;;;;;;22.03;16.13;;;11.90;1.00;;;;;;5073481;28;20678;-83
2021/03/10 12:10:11;;;;;;;21.43;16.17;;;12.00;1.00;;;;;;5073773;28;20200;-79
2021/03/10 12:12:37;;;;;;;22.60;17.50;;;12.10;1.00;;;;;;5073027;28;20171;-85
2021/03/10 12:15:04;;;;;;;23.03;16.50;;;12.10;1.00;;;;;;5055092;28;20176;-81
2021/03/10 12:17:29;;;;;;;24.53;17.47;;;12.10;1.00;;;;;;5073305;28;20165;-82
2021/03/10 12:19:55;;;;;;;24.63;17.80;;;12.00;1.00;;;;;;5073058;28;20180;-84
2021/03/10 12:22:20;;;;;;;23.93;16.73;;;11.80;1.00;;;;;;5071925;28;20160;-80
2021/03/10 12:24:46;;;;;;;21.80;16.20;;;11.70;1.00;;;;;;5051828;28;20176;-79
2021/03/10 12:27:12;;;;;;;25.30;16.80;;;11.60;1.00;;;;;;5072694;28;20600;-86
2021/03/10 12:29:49;;;;;;;26.90;16.37;;;11.60;1.00;;;;;;5056417;28;20210;-82
2021/03/10 12:32:15;;;;;;;20.67;14.43;;;11.70;1.00;;;;;;5073365;28;20172;-80
2021/03/10 12:34:41;;;;;;;19.77;15.63;;;11.70;1.00;;;;;;5073013;28;20168;-84
2021/03/10 12:37:06;;;;;;;21.57;15.07;;;11.70;1.00;;;;;;5073131;28;20685;-84
2021/03/10 12:39:32;;;;;;;26.70;16.67;;;11.80;1.00;;;;;;5073226;28;20195;-77
2021/03/10 12:41:57;;;;;;;23.43;16.23;;;11.80;1.00;;;;;;5072886;28;20216;-83
2021/03/10 12:44:23;;;;;;;24.77;17.27;;;11.90;1.00;;;;;;5073032;28;20254;-78
2021/03/10 12:46:51;;;;;;;22.97;16.70;;;11.80;1.00;;;;;;5073192;28;20179;-80